Strona główna
METAR-TAF:

METAR-TAF

Lotnisko :

Port lotniczy Hawarden

Hawarden, Walia

Szerokość geograficzna: 53-10N, Długość geograficzna: 002-59W, wysokość: 10 m

Aktualna obserwacja pogody

Raport powstał 14 godziny i 26 minut temu, godzina 14:50 UTC
Wiatr 15 kt od południowo-południowy wschód
Temperatura 19°C
Wilgotność 43%
Ciśnienie 1006 hPa
Widzialność 10 km lub więcej
Brak chmur poniżej 1500 m i brak chmur cumulonimbus

METAR: EGNR 051450Z 15015KT CAVOK 19/06 Q1006

czas: 06:16 (05:16 UTC)

Prognoza

Raport powstał 15 godziny i 22 minut temu, godzina 13:54 UTC
Prognoza ważna od 05 godzina 15 UTC do 05 godzina 18 UTC
Wiatr 17 kt od południowo-południowy wschód
Widzialność 10 km lub więcej
Brak chmur poniżej 1500 m i brak chmur cumulonimbus
Przejściowo
od 05 godzina 15 UTC do 05 godzina 18 UTC
Wiatr 20 kt od południe w porywach dochodzący do 30 kt

TAF: EGNR 051354Z 0515/0518 15017KT CAVOK TEMPO 0515/0518 17020G30KT

Obserwacja i prognoza pogody dla ponad 4000 lotnisk (raport METAR i TAF).

Dostępne stacje oznaczono żółtymi i czerwonymi punktami na mapie.

Najedź kursorem aby zobaczyć nazwę stacji.

Kliknij aby zobaczyć obserwacje i prognozy pogody.

Aby zmienić mapę: kliknij na zielony przycisk z czarnym krzyżykiem, aby powiększyć; na zielony przycisk z myślnikiem, aby pomniejszyć; na zielone strzałki, aby przejść do map sąsiednich.


METAR-TAF: